Open Full Screen Window  High Contrast Mode
Wind Gusting 00 knots
06
May 22, 2015 6:26 AM CDT
Weather Information
Wind Direction
  220 °
Wind Speed
  06 kt (7 mph)
Wind Gust
  00 kt (0 mph)
Altimeter
30.14 in
Visibility
10 SM
Temperature
10° C
50° F
Dewpoint
06° C
43° F
Humidity
76%
Sky Condition
Clear
VFR

METAR KAXV 221126Z AUTO 22006KT 10SM CLR 10/06 A3014 RMK AO2

*Background is not an actual portrayal of the airport.